Portada
METAR-TAF:

METAR-TAF

Aeroports :

Aeroport de Ouarzazate

Ouarzazate, Marroc

latitud: 30-56N, longitud: 006-54W, altitud: 1139 m

Observació

L'informe es va fer fa 38 minuts, a les 10:00 UTC
Vent 4 kt del Oest
Temperatura 23°C
Humitat 25%
Pressió 1017 hPa
Visibilitat 10 km o més
sense núvols per sota de 1500 mi sense presència de cumulonimbus.

METAR: GMMZ 151000Z 27004KT CAVOK 23/02 Q1017 NOSIG

Hora: 11:38 (10:38 UTC)

Pronòstic

L'informe es va fer fa 5 hores i 38 minuts, a les 05:00 UTC
Pronòstic vàlid del 15 a les 06 UTC al 16 a les 12 UTC
Vent 2 kt amb direcció variable
Visibilitat 10 km o més
sense núvols per sota de 1500 mi sense presència de cumulonimbus.
Temporalment
l' 15 a les 14 UTC al 15 a les 21 UTC
Vent 17 kt del Oest/Nord-Oest

TAF: GMMZ 150500Z 1506/1612 VRB02KT CAVOK TEMPO 1514/1521 30017KT

Observacions i pronòstics meteorològics de més de 4000 aeroports (METAR i TAF).

Les estacions disponibles són els punts grocs i vermells al mapa.

Posi el ratolí al punt desitjat per veure el nom de l'estació.

Feu clic per veure les observacions i els pronòstics meteorològics.

Per canviar el mapa: feu clic els botons verds amb una creu de color negre per apropar; al botó verd amb un guió per allunyar la imatge; o en les fletxes verdes per a mapes adjacents.


METAR-TAF: